createdAt,value
2018-09-29T00:01:02.060Z,2.00
2018-09-29T00:03:31.529Z,2.00
2018-09-29T00:06:01.639Z,3.00
2018-09-29T00:08:31.345Z,2.00
2018-09-29T00:11:00.512Z,1.00
2018-09-29T00:13:30.528Z,1.75
2018-09-29T00:16:00.928Z,2.00
2018-09-29T00:18:32.519Z,2.00
2018-09-29T00:21:02.900Z,2.00
2018-09-29T00:23:32.362Z,2.00
2018-09-29T00:26:02.661Z,2.00
2018-09-29T00:28:32.094Z,1.75
2018-09-29T00:31:02.747Z,1.00
2018-09-29T00:33:33.034Z,4.00
2018-09-29T00:36:03.558Z,2.00
2018-09-29T00:38:33.588Z,2.00
2018-09-29T00:41:04.289Z,2.00
2018-09-29T00:43:33.630Z,4.00
2018-09-29T00:46:03.542Z,4.00
2018-09-29T00:48:33.459Z,4.00
2018-09-29T00:51:02.905Z,5.00
2018-09-29T00:53:32.330Z,4.00
2018-09-29T00:56:02.181Z,4.50
2018-09-29T00:58:32.138Z,4.00
2018-09-29T01:01:01.870Z,1.75
2018-09-29T01:03:31.804Z,4.00
2018-09-29T01:06:01.667Z,4.25
2018-09-29T01:08:30.955Z,3.50
2018-09-29T01:11:03.683Z,3.00
2018-09-29T01:13:33.131Z,4.00
2018-09-29T01:16:03.004Z,4.00
2018-09-29T01:18:32.691Z,2.00
2018-09-29T01:21:04.036Z,4.00
2018-09-29T01:23:35.121Z,4.00
2018-09-29T01:26:05.833Z,3.50
2018-09-29T01:28:36.566Z,4.50
2018-09-29T01:31:07.558Z,4.00
2018-09-29T01:33:37.858Z,3.50
2018-09-29T01:36:07.681Z,4.25
2018-09-29T01:38:37.444Z,5.00
2018-09-29T01:41:07.732Z,4.00
2018-09-29T01:43:37.407Z,4.00
2018-09-29T01:46:09.530Z,4.25
2018-09-29T01:48:39.788Z,5.00
2018-09-29T01:51:10.182Z,4.00
2018-09-29T01:53:39.690Z,4.50
2018-09-29T01:56:09.338Z,4.00
2018-09-29T01:58:38.724Z,4.25
2018-09-29T02:01:09.029Z,4.00
2018-09-29T02:03:42.926Z,4.00
2018-09-29T02:06:12.511Z,4.00
2018-09-29T02:08:42.746Z,4.25
2018-09-29T02:11:12.927Z,4.00
2018-09-29T02:13:42.553Z,4.00
2018-09-29T02:16:13.012Z,4.00
2018-09-29T02:18:47.582Z,4.00
2018-09-29T02:21:17.033Z,4.75
2018-09-29T02:23:47.482Z,5.75
2018-09-29T02:26:16.741Z,4.00
2018-09-29T02:28:48.127Z,4.00
2018-09-29T02:31:18.227Z,5.75
2018-09-29T02:33:47.698Z,4.25
2018-09-29T02:36:17.694Z,4.00
2018-09-29T02:38:48.118Z,4.00
2018-09-29T02:41:18.753Z,4.00
2018-09-29T02:43:49.352Z,5.25
2018-09-29T02:46:20.751Z,5.75
2018-09-29T02:48:50.333Z,5.25
2018-09-29T02:51:19.896Z,4.00
2018-09-29T02:53:51.345Z,4.00
2018-09-29T02:56:22.756Z,5.75
2018-09-29T02:58:53.405Z,4.00
2018-09-29T03:01:23.432Z,4.00
2018-09-29T03:03:54.075Z,6.25
2018-09-29T03:06:25.142Z,5.75
2018-09-29T03:08:54.841Z,6.75
2018-09-29T03:11:24.032Z,7.00
2018-09-29T03:13:54.080Z,7.00
2018-09-29T03:16:24.703Z,6.25
2018-09-29T03:18:56.292Z,6.75
2018-09-29T03:21:26.028Z,5.00
2018-09-29T03:23:55.791Z,6.00
2018-09-29T03:26:25.027Z,6.00
2018-09-29T03:28:56.170Z,6.25
2018-09-29T03:31:26.214Z,5.00
2018-09-29T03:33:57.052Z,6.00
2018-09-29T03:36:26.687Z,6.00
2018-09-29T03:38:59.437Z,6.50
2018-09-29T03:41:29.658Z,7.00
2018-09-29T03:44:00.883Z,6.00
2018-09-29T03:46:31.588Z,7.00
2018-09-29T03:49:11.231Z,4.00
2018-09-29T03:51:40.709Z,5.50
2018-09-29T03:54:10.211Z,4.00
2018-09-29T03:56:39.958Z,4.00
2018-09-29T03:59:11.234Z,3.75
2018-09-29T04:01:42.682Z,4.00
2018-09-29T04:04:13.572Z,6.75
2018-09-29T04:06:44.287Z,5.00
2018-09-29T04:09:15.914Z,4.00
2018-09-29T04:11:47.529Z,4.00
2018-09-29T04:14:17.704Z,6.00
2018-09-29T04:16:48.690Z,7.00
2018-09-29T04:19:23.306Z,5.50
2018-09-29T04:21:56.868Z,6.00
2018-09-29T04:24:28.367Z,6.00
2018-09-29T04:29:25.882Z,6.00
2018-09-29T04:31:56.345Z,5.00
2018-09-29T04:34:26.601Z,5.00
2018-09-29T04:36:57.226Z,6.00
2018-09-29T04:39:27.218Z,7.25
2018-09-29T04:41:57.693Z,6.50
2018-09-29T04:44:28.643Z,6.00
2018-09-29T04:46:59.691Z,6.00
2018-09-29T04:49:29.463Z,5.00
2018-09-29T04:51:59.633Z,5.00
2018-09-29T04:54:29.537Z,4.00
2018-09-29T04:57:04.461Z,4.00
2018-09-29T04:59:35.956Z,4.00
2018-09-29T05:02:05.986Z,4.50
2018-09-29T05:04:38.096Z,6.00
2018-09-29T05:07:09.443Z,4.00
2018-09-29T05:09:40.322Z,6.00
2018-09-29T05:12:10.073Z,4.50
2018-09-29T05:14:39.908Z,3.75
2018-09-29T05:17:10.593Z,5.50
2018-09-29T05:20:01.229Z,4.50
2018-09-29T05:22:34.591Z,4.00
2018-09-29T05:25:05.003Z,6.00
2018-09-29T05:27:36.031Z,6.00
2018-09-29T05:30:09.182Z,4.50
2018-09-29T05:32:39.571Z,5.50
2018-09-29T05:35:09.446Z,5.00
2018-09-29T05:37:39.460Z,6.00
2018-09-29T05:40:13.263Z,6.00
2018-09-29T05:42:43.553Z,7.75
2018-09-29T05:45:15.669Z,7.75
2018-09-29T05:47:46.700Z,8.25
2018-09-29T05:50:19.438Z,4.00
2018-09-29T05:52:49.772Z,5.50
2018-09-29T05:55:19.770Z,4.00
2018-09-29T05:57:52.645Z,6.00
2018-09-29T06:00:24.179Z,6.00
2018-09-29T06:02:54.013Z,6.00
2018-09-29T06:05:24.146Z,8.25
2018-09-29T06:10:26.137Z,6.75
2018-09-29T06:12:56.402Z,9.00
2018-09-29T06:15:32.449Z,9.00
2018-09-29T06:18:03.393Z,7.75
2018-09-29T06:20:33.467Z,8.50
2018-09-29T06:23:05.669Z,7.75
2018-09-29T06:25:35.377Z,7.00
2018-09-29T06:28:05.592Z,6.50
2018-09-29T06:30:37.807Z,7.50
2018-09-29T06:33:07.722Z,6.75
2018-09-29T06:35:40.259Z,6.25
2018-09-29T06:38:14.081Z,6.75
2018-09-29T06:40:47.992Z,6.00
2018-09-29T06:43:18.393Z,6.50
2018-09-29T06:45:49.666Z,6.00
2018-09-29T06:48:19.329Z,8.00
2018-09-29T06:50:55.054Z,21.75
2018-09-29T06:53:24.859Z,7.00
2018-09-29T06:56:05.942Z,6.75
2018-09-29T06:58:37.540Z,6.25
2018-09-29T07:01:13.811Z,7.75
2018-09-29T07:04:08.876Z,8.00
2018-09-29T07:06:40.459Z,8.50
2018-09-29T07:09:11.543Z,7.00
2018-09-29T07:11:45.185Z,8.00
2018-09-29T07:14:14.913Z,6.50
2018-09-29T07:16:46.035Z,7.75
2018-09-29T07:19:16.335Z,7.00
2018-09-29T07:21:48.600Z,7.25
2018-09-29T07:24:18.352Z,6.25
2018-09-29T07:26:48.766Z,6.50
2018-09-29T07:29:21.947Z,7.00
2018-09-29T07:31:52.755Z,8.50
2018-09-29T07:34:22.756Z,6.00
2018-09-29T07:36:53.076Z,7.00
2018-09-29T07:39:23.105Z,6.00
2018-09-29T07:41:53.761Z,5.00
2018-09-29T07:44:23.940Z,6.00
2018-09-29T07:46:55.785Z,6.00
2018-09-29T07:49:33.801Z,5.00
2018-09-29T07:52:03.934Z,5.00
2018-09-29T07:54:37.241Z,6.25
2018-09-29T07:57:07.707Z,6.00
2018-09-29T07:59:41.657Z,6.50
2018-09-29T08:02:14.473Z,5.00
2018-09-29T08:04:44.731Z,5.25
2018-09-29T08:07:23.028Z,4.50
2018-09-29T08:09:53.368Z,3.00
2018-09-29T08:12:26.747Z,4.00
2018-09-29T08:14:56.621Z,3.00
2018-09-29T08:17:57.880Z,2.50
2018-09-29T08:20:30.555Z,2.25
2018-09-29T08:23:03.324Z,3.00
2018-09-29T08:25:39.502Z,2.00
2018-09-29T08:28:09.988Z,2.50
2018-09-29T08:30:42.432Z,2.00
2018-09-29T08:33:13.066Z,3.00
2018-09-29T08:35:43.094Z,3.00
2018-09-29T08:38:13.879Z,2.00
2018-09-29T08:40:45.762Z,2.00
2018-09-29T08:43:18.935Z,1.00
2018-09-29T08:45:49.864Z,1.00
2018-09-29T08:48:23.181Z,1.00
2018-09-29T08:50:53.784Z,1.00
2018-09-29T08:53:26.887Z,2.00
2018-09-29T08:55:58.700Z,1.50
2018-09-29T08:58:30.541Z,1.75
2018-09-29T09:01:07.238Z,1.00
2018-09-29T09:03:40.249Z,1.25
2018-09-29T09:06:11.984Z,1.00
2018-09-29T09:08:42.785Z,2.00
2018-09-29T09:11:14.326Z,1.00
2018-09-29T09:13:44.730Z,2.00
2018-09-29T09:16:18.980Z,1.00
2018-09-29T09:18:51.053Z,2.00
2018-09-29T09:21:23.009Z,1.00
2018-09-29T09:23:52.511Z,1.00
2018-09-29T09:26:23.240Z,1.50
2018-09-29T09:28:52.833Z,1.00
2018-09-29T09:31:24.302Z,1.00
2018-09-29T09:33:54.340Z,1.00
2018-09-29T09:36:24.375Z,1.00
2018-09-29T09:38:54.538Z,0.00
2018-09-29T09:41:29.672Z,0.25
2018-09-29T09:44:02.428Z,0.00
2018-09-29T09:46:40.088Z,0.00
2018-09-29T09:49:12.206Z,0.75
2018-09-29T09:51:46.087Z,1.00
2018-09-29T09:54:17.495Z,1.00
2018-09-29T09:56:48.515Z,1.00
2018-09-29T09:59:19.713Z,1.25
2018-09-29T10:04:37.766Z,0.00
2018-09-29T10:07:08.857Z,0.00
2018-09-29T10:09:41.413Z,0.25
2018-09-29T10:12:13.760Z,1.00
2018-09-29T10:14:47.005Z,0.50
2018-09-29T10:17:26.510Z,0.75
2018-09-29T10:19:57.705Z,0.75
2018-09-29T10:22:29.879Z,1.00
2018-09-29T10:25:01.951Z,1.00
2018-09-29T10:27:46.792Z,1.00
2018-09-29T10:30:26.740Z,0.50
2018-09-29T10:32:56.773Z,0.75
2018-09-29T10:35:29.219Z,1.00
2018-09-29T10:40:51.560Z,2.00
2018-09-29T10:43:27.957Z,0.00
2018-09-29T10:46:06.145Z,1.00
2018-09-29T10:48:38.923Z,0.75
2018-09-29T10:51:13.495Z,0.25
2018-09-29T10:53:45.979Z,0.00
2018-09-29T10:56:20.247Z,0.00
2018-09-29T10:58:50.373Z,0.00
2018-09-29T11:01:20.937Z,0.75
2018-09-29T11:03:52.825Z,0.50
2018-09-29T11:09:36.267Z,0.25
2018-09-29T11:12:12.485Z,0.00
2018-09-29T11:14:48.294Z,1.00
2018-09-29T11:17:24.465Z,0.00
2018-09-29T11:19:55.949Z,0.50
2018-09-29T11:22:27.255Z,0.25
2018-09-29T11:24:56.982Z,3.00
2018-09-29T11:30:12.799Z,1.00
2018-09-29T11:32:43.436Z,1.00
2018-09-29T11:35:14.619Z,0.25
2018-09-29T11:37:48.074Z,0.75
2018-09-29T11:40:18.584Z,0.00
2018-09-29T11:42:48.662Z,0.25
2018-09-29T11:45:26.252Z,0.00
2018-09-29T11:48:07.755Z,0.00
2018-09-29T11:50:40.540Z,0.25
2018-09-29T11:53:11.312Z,0.25
2018-09-29T11:58:12.623Z,0.00
2018-09-29T12:00:43.242Z,-0.25
2018-09-29T12:03:13.388Z,0.00
2018-09-29T12:05:43.301Z,0.00
2018-09-29T12:08:14.141Z,0.00
2018-09-29T12:10:45.786Z,0.00
2018-09-29T12:13:16.355Z,0.00
2018-09-29T12:15:47.701Z,0.00
2018-09-29T12:18:19.016Z,-0.25
2018-09-29T12:20:50.442Z,0.00
2018-09-29T12:23:21.032Z,0.50
2018-09-29T12:25:50.518Z,0.25
2018-09-29T12:28:22.162Z,0.00
2018-09-29T12:30:52.600Z,0.50
2018-09-29T12:33:26.793Z,0.00
2018-09-29T12:36:01.015Z,0.00
2018-09-29T12:38:46.678Z,0.00
2018-09-29T12:41:18.949Z,0.00
2018-09-29T12:43:51.424Z,0.00
2018-09-29T12:46:21.949Z,0.00
2018-09-29T12:48:56.821Z,0.00
2018-09-29T12:55:58.803Z,0.00
2018-09-29T12:58:44.448Z,0.50
2018-09-29T13:01:18.585Z,0.00
2018-09-29T13:03:51.609Z,4.50
2018-09-29T13:06:37.656Z,2.50
2018-09-29T13:09:11.206Z,0.00
2018-09-29T13:11:46.771Z,0.00
2018-09-29T13:14:18.359Z,0.00
2018-09-29T13:16:50.393Z,0.00
2018-09-29T13:19:23.615Z,0.00
2018-09-29T13:21:53.353Z,0.25
2018-09-29T13:24:24.100Z,0.00
2018-09-29T13:26:54.272Z,3.75
2018-09-29T13:29:24.439Z,20.50
2018-09-29T13:31:56.810Z,4.50
2018-09-29T13:34:27.200Z,5.75
2018-09-29T13:39:35.773Z,0.00
2018-09-29T13:42:09.718Z,0.00
2018-09-29T13:44:40.541Z,1.00
2018-09-29T13:47:10.343Z,0.00
2018-09-29T13:49:40.687Z,0.50
2018-09-29T13:52:12.821Z,0.50
2018-09-29T13:54:46.938Z,0.00
2018-09-29T13:57:16.967Z,0.25
2018-09-29T13:59:47.255Z,1.00
2018-09-29T14:02:18.436Z,0.00
2018-09-29T14:04:52.999Z,0.00
2018-09-29T14:07:26.381Z,1.00
2018-09-29T14:09:57.158Z,0.25
2018-09-29T14:12:29.537Z,0.00
2018-09-29T14:15:04.432Z,0.00
2018-09-29T14:17:36.039Z,1.00
2018-09-29T14:20:07.058Z,0.00
2018-09-29T14:22:36.656Z,0.00
2018-09-29T14:25:11.695Z,0.00
2018-09-29T14:27:50.857Z,1.00
2018-09-29T14:33:10.555Z,0.00
2018-09-29T14:35:44.005Z,0.00
2018-09-29T14:38:19.282Z,0.00
2018-09-29T14:40:49.211Z,0.00
2018-09-29T14:43:24.195Z,1.00
2018-09-29T14:45:56.950Z,1.75
2018-09-29T14:48:30.813Z,1.00
2018-09-29T14:51:00.500Z,1.00
2018-09-29T14:54:02.323Z,1.00
2018-09-29T14:56:35.850Z,2.00
2018-09-29T14:59:13.046Z,0.25
2018-09-29T15:01:47.154Z,0.25
2018-09-29T15:04:21.446Z,0.75
2018-09-29T15:10:07.450Z,0.00
2018-09-29T15:12:43.520Z,1.00
2018-09-29T15:15:19.335Z,0.00
2018-09-29T15:17:50.144Z,1.00
2018-09-29T15:20:21.402Z,0.25
2018-09-29T15:22:51.043Z,1.00
2018-09-29T15:25:20.790Z,0.00
2018-09-29T15:27:51.135Z,0.00
2018-09-29T15:30:23.832Z,0.00
2018-09-29T15:33:17.894Z,0.25
2018-09-29T15:35:47.472Z,0.50
2018-09-29T15:38:18.659Z,0.25
2018-09-29T15:40:50.640Z,0.25
2018-09-29T15:43:21.607Z,1.00
2018-09-29T15:45:53.944Z,0.50
2018-09-29T15:48:25.936Z,0.00
2018-09-29T15:50:58.170Z,0.00
2018-09-29T15:53:28.423Z,0.50
2018-09-29T15:55:58.740Z,0.25
2018-09-29T15:58:39.643Z,1.00
2018-09-29T16:02:17.391Z,1.00
2018-09-29T16:04:50.467Z,0.00
2018-09-29T16:07:33.486Z,0.00
2018-09-29T16:10:06.465Z,1.00
2018-09-29T16:12:36.389Z,1.50
2018-09-29T16:17:47.460Z,1.00
2018-09-29T16:20:18.926Z,0.00
2018-09-29T16:22:53.998Z,1.00
2018-09-29T16:25:26.348Z,1.00
2018-09-29T16:28:04.217Z,0.00
2018-09-29T16:30:38.170Z,0.25
2018-09-29T16:33:10.098Z,0.75
2018-09-29T16:35:46.254Z,1.00
2018-09-29T16:38:17.444Z,1.00
2018-09-29T16:40:54.275Z,0.75
2018-09-29T16:43:34.175Z,0.00
2018-09-29T16:49:11.721Z,1.00
2018-09-29T16:51:42.044Z,1.00
2018-09-29T16:54:41.743Z,1.00
2018-09-29T16:57:14.363Z,1.00
2018-09-29T16:59:44.907Z,1.50
2018-09-29T17:02:16.305Z,1.00
2018-09-29T17:04:49.349Z,1.75
2018-09-29T17:07:24.520Z,1.00
2018-09-29T17:10:00.471Z,2.00
2018-09-29T17:12:31.155Z,2.00
2018-09-29T17:17:39.291Z,2.00
2018-09-29T17:20:09.808Z,1.50
2018-09-29T17:22:39.532Z,1.50
2018-09-29T17:25:30.315Z,2.00
2018-09-29T17:28:00.237Z,2.00
2018-09-29T17:30:37.116Z,2.00
2018-09-29T17:33:08.787Z,2.00
2018-09-29T17:35:38.239Z,2.50
2018-09-29T17:38:08.982Z,1.75
2018-09-29T17:40:46.119Z,2.00
2018-09-29T17:43:18.516Z,2.25
2018-09-29T17:45:48.574Z,2.50
2018-09-29T17:48:19.290Z,4.00
2018-09-29T17:50:52.794Z,2.50
2018-09-29T17:53:23.687Z,2.25
2018-09-29T17:55:55.607Z,2.00
2018-09-29T17:58:25.059Z,2.75
2018-09-29T18:01:00.534Z,2.50
2018-09-29T18:03:29.938Z,2.25
2018-09-29T18:06:01.188Z,2.25
2018-09-29T18:08:33.101Z,3.75
2018-09-29T18:11:24.535Z,2.75
2018-09-29T18:13:57.209Z,2.00
2018-09-29T18:16:28.566Z,2.50
2018-09-29T18:18:59.377Z,5.00
2018-09-29T18:21:30.474Z,3.00
2018-09-29T18:23:59.918Z,3.50
2018-09-29T18:26:30.059Z,4.25
2018-09-29T18:29:02.190Z,4.75
2018-09-29T18:31:33.751Z,5.25
2018-09-29T18:34:05.509Z,4.75
2018-09-29T18:36:38.031Z,7.00
2018-09-29T18:39:12.511Z,6.25
2018-09-29T18:41:46.191Z,7.00
2018-09-29T18:44:16.689Z,6.75
2018-09-29T18:46:49.095Z,7.50
2018-09-29T18:49:22.756Z,7.00
2018-09-29T18:51:54.040Z,8.00
2018-09-29T18:54:35.608Z,6.00
2018-09-29T18:57:11.563Z,7.00
2018-09-29T18:59:43.571Z,6.00
2018-09-29T19:02:15.925Z,7.75
2018-09-29T19:04:48.456Z,6.50
2018-09-29T19:07:19.284Z,5.50
2018-09-29T19:10:00.055Z,6.50
2018-09-29T19:12:31.371Z,7.00
2018-09-29T19:15:04.445Z,7.00
2018-09-29T19:17:34.954Z,6.75
2018-09-29T19:20:05.596Z,7.00
2018-09-29T19:22:37.597Z,7.00
2018-09-29T19:27:48.735Z,7.00
2018-09-29T19:30:25.231Z,6.25
2018-09-29T19:33:02.186Z,8.75
2018-09-29T19:35:36.229Z,11.00
2018-09-29T19:38:11.874Z,10.00
2018-09-29T19:40:43.496Z,8.75
2018-09-29T19:43:17.456Z,8.75
2018-09-29T19:45:53.778Z,8.75
2018-09-29T19:48:25.067Z,8.75
2018-09-29T19:50:58.625Z,7.00
2018-09-29T19:53:33.904Z,6.50
2018-09-29T19:56:04.827Z,6.50
2018-09-29T19:58:46.159Z,6.25
2018-09-29T20:01:20.373Z,5.75
2018-09-29T20:03:53.255Z,6.00
2018-09-29T20:06:57.796Z,6.00
2018-09-29T20:09:35.548Z,5.25
2018-09-29T20:12:06.440Z,5.00
2018-09-29T20:14:38.430Z,5.75
2018-09-29T20:17:24.412Z,6.00
2018-09-29T20:19:57.516Z,7.75
2018-09-29T20:22:29.649Z,5.25
2018-09-29T20:25:05.187Z,6.00
2018-09-29T20:27:37.559Z,5.50
2018-09-29T20:30:10.237Z,6.00
2018-09-29T20:33:02.855Z,5.25
2018-09-29T20:35:34.357Z,5.75
2018-09-29T20:38:07.074Z,4.75
2018-09-29T20:40:37.754Z,5.00
2018-09-29T20:43:40.392Z,6.00
2018-09-29T20:46:16.625Z,7.25
2018-09-29T20:48:50.610Z,9.00
2018-09-29T20:51:23.518Z,13.25
2018-09-29T20:53:55.022Z,12.25
2018-09-29T20:56:26.084Z,11.75
2018-09-29T20:58:57.768Z,9.75
2018-09-29T21:01:28.095Z,12.25
2018-09-29T21:03:58.560Z,10.00
2018-09-29T21:06:29.728Z,7.75
2018-09-29T21:08:59.192Z,27.50
2018-09-29T21:11:32.164Z,27.50
2018-09-29T21:14:03.520Z,20.25
2018-09-29T21:16:34.031Z,17.00
2018-09-29T21:19:05.027Z,9.00
2018-09-29T21:21:36.299Z,9.00
2018-09-29T21:24:12.291Z,7.25
2018-09-29T21:26:44.019Z,6.00
2018-09-29T21:29:13.308Z,8.50
2018-09-29T21:31:43.635Z,10.00
2018-09-29T21:34:13.637Z,8.50
2018-09-29T21:36:46.237Z,6.00
2018-09-29T21:39:23.719Z,5.00
2018-09-29T21:42:01.537Z,8.00
2018-09-29T21:44:34.264Z,8.75
2018-09-29T21:47:15.114Z,8.00
2018-09-29T21:49:48.158Z,8.75
2018-09-29T21:52:20.220Z,9.75
2018-09-29T21:54:50.258Z,8.50
2018-09-29T21:57:23.926Z,9.00
2018-09-29T21:59:53.398Z,9.00
2018-09-29T22:02:23.390Z,7.00
2018-09-29T22:04:55.120Z,8.00
2018-09-29T22:07:28.508Z,8.50
2018-09-29T22:09:58.391Z,8.00
2018-09-29T22:12:28.313Z,6.00
2018-09-29T22:14:58.458Z,9.00
2018-09-29T22:17:28.964Z,12.00
2018-09-29T22:19:59.151Z,12.25
2018-09-29T22:22:28.669Z,11.00
2018-09-29T22:24:59.567Z,12.50
2018-09-29T22:27:28.992Z,12.75
2018-09-29T22:29:59.516Z,12.00
2018-09-29T22:32:33.481Z,12.00
2018-09-29T22:35:03.204Z,11.25
2018-09-29T22:37:33.305Z,12.50
2018-09-29T22:40:18.707Z,8.50
2018-09-29T22:42:48.365Z,9.00
2018-09-29T22:45:20.403Z,11.00
2018-09-29T22:47:50.559Z,11.00
2018-09-29T22:50:22.354Z,8.50
2018-09-29T22:52:53.219Z,9.00
2018-09-29T22:55:23.102Z,11.50
2018-09-29T22:57:53.604Z,12.75
2018-09-29T23:00:24.389Z,11.25
2018-09-29T23:02:54.244Z,9.00
2018-09-29T23:05:23.574Z,11.00
2018-09-29T23:07:53.977Z,8.25
2018-09-29T23:10:23.868Z,8.00
2018-09-29T23:12:54.281Z,9.00
2018-09-29T23:15:23.930Z,11.00
2018-09-29T23:17:57.030Z,11.25
2018-09-29T23:20:27.373Z,12.00
2018-09-29T23:22:59.290Z,13.25
2018-09-29T23:25:30.694Z,10.50
2018-09-29T23:28:01.739Z,13.75
2018-09-29T23:30:34.092Z,16.00
2018-09-29T23:33:04.388Z,14.25
2018-09-29T23:35:33.711Z,14.25
2018-09-29T23:38:04.360Z,13.50
2018-09-29T23:40:34.451Z,15.75
2018-09-29T23:43:06.259Z,11.00
2018-09-29T23:45:38.391Z,11.00
2018-09-29T23:48:13.250Z,13.75
2018-09-29T23:50:43.422Z,12.75
2018-09-29T23:53:13.471Z,18.75
2018-09-29T23:55:44.260Z,15.50
2018-09-29T23:58:14.597Z,15.75
